createdAt,value
2023-03-17T00:00:44.562Z,7.70
2023-03-17T00:03:15.594Z,7.70
2023-03-17T00:05:42.853Z,7.70
2023-03-17T00:08:16.180Z,7.70
2023-03-17T00:10:43.062Z,7.70
2023-03-17T00:13:10.557Z,7.70
2023-03-17T00:15:37.965Z,7.70
2023-03-17T00:18:04.953Z,7.70
2023-03-17T00:20:33.255Z,7.70
2023-03-17T00:23:02.999Z,7.70
2023-03-17T00:25:30.953Z,7.70
2023-03-17T00:27:58.713Z,7.70
2023-03-17T00:30:27.526Z,7.70
2023-03-17T00:32:56.905Z,7.70
2023-03-17T00:35:25.406Z,7.70
2023-03-17T00:37:53.787Z,7.70
2023-03-17T00:40:25.778Z,7.60
2023-03-17T00:42:54.661Z,7.60
2023-03-17T00:45:22.440Z,7.60
2023-03-17T00:47:50.549Z,7.60
2023-03-17T00:50:18.787Z,7.60
2023-03-17T00:52:45.853Z,7.60
2023-03-17T00:55:13.132Z,7.50
2023-03-17T00:57:40.714Z,7.50
2023-03-17T01:00:17.466Z,7.60
2023-03-17T01:02:45.706Z,7.60
2023-03-17T01:05:12.921Z,7.60
2023-03-17T01:07:40.541Z,7.50
2023-03-17T01:10:13.185Z,7.50
2023-03-17T01:12:40.521Z,7.50
2023-03-17T01:15:07.680Z,7.50
2023-03-17T01:17:34.699Z,7.50
2023-03-17T01:20:01.640Z,7.50
2023-03-17T01:22:29.340Z,7.50
2023-03-17T01:24:56.853Z,7.50
2023-03-17T01:27:24.760Z,7.50
2023-03-17T01:29:55.301Z,7.50
2023-03-17T01:32:22.465Z,7.50
2023-03-17T01:34:49.411Z,7.50
2023-03-17T01:37:16.366Z,7.50
2023-03-17T01:39:43.313Z,7.50
2023-03-17T01:42:10.625Z,7.50
2023-03-17T01:44:56.580Z,7.50
2023-03-17T01:47:24.753Z,7.50
2023-03-17T01:49:53.247Z,7.50
2023-03-17T01:52:22.014Z,7.50
2023-03-17T01:54:55.937Z,7.40
2023-03-17T01:57:29.883Z,7.40
2023-03-17T01:59:59.803Z,7.40
2023-03-17T02:02:31.056Z,7.40
2023-03-17T02:04:58.348Z,7.30
2023-03-17T02:07:26.867Z,7.30
2023-03-17T02:09:54.671Z,7.20
2023-03-17T02:12:23.022Z,7.20
2023-03-17T02:14:50.178Z,7.10
2023-03-17T02:17:17.862Z,7.10
2023-03-17T02:19:45.065Z,7.10
2023-03-17T02:22:12.041Z,7.10
2023-03-17T02:24:47.891Z,7.10
2023-03-17T02:27:14.952Z,7.00
2023-03-17T02:29:42.570Z,7.00
2023-03-17T02:32:10.233Z,7.00
2023-03-17T02:34:37.514Z,7.00
2023-03-17T02:37:04.795Z,7.00
2023-03-17T02:39:32.409Z,7.00
2023-03-17T02:41:59.579Z,7.00
2023-03-17T02:44:27.235Z,7.00
2023-03-17T02:46:54.162Z,7.00
2023-03-17T02:49:21.352Z,7.00
2023-03-17T02:51:48.334Z,7.00
2023-03-17T02:54:15.228Z,6.90
2023-03-17T02:56:42.186Z,6.90
2023-03-17T02:59:09.090Z,6.90
2023-03-17T03:01:36.522Z,6.90
2023-03-17T03:04:04.104Z,6.90
2023-03-17T03:06:31.877Z,6.90
2023-03-17T03:08:58.790Z,6.90
2023-03-17T03:11:27.082Z,6.90
2023-03-17T03:13:53.968Z,6.90
2023-03-17T03:16:21.044Z,6.90
2023-03-17T03:18:48.043Z,6.90
2023-03-17T03:21:15.604Z,6.90
2023-03-17T03:23:43.552Z,6.90
2023-03-17T03:26:10.500Z,6.90
2023-03-17T03:28:37.402Z,6.90
2023-03-17T03:31:04.398Z,6.80
2023-03-17T03:33:31.484Z,6.90
2023-03-17T03:35:59.623Z,6.90
2023-03-17T03:38:27.015Z,6.90
2023-03-17T03:40:53.869Z,6.80
2023-03-17T03:43:23.957Z,6.80
2023-03-17T03:45:51.546Z,6.80
2023-03-17T03:48:18.931Z,6.80
2023-03-17T03:50:46.120Z,6.70
2023-03-17T03:53:13.310Z,6.70
2023-03-17T03:55:40.179Z,6.70
2023-03-17T03:58:07.122Z,6.60
2023-03-17T04:00:34.030Z,6.60
2023-03-17T04:03:01.743Z,6.60
2023-03-17T04:05:29.053Z,6.70
2023-03-17T04:07:56.250Z,6.70
2023-03-17T04:10:23.662Z,6.70
2023-03-17T04:12:50.888Z,6.70
2023-03-17T04:15:19.829Z,6.80
2023-03-17T04:17:47.442Z,6.80
2023-03-17T04:20:15.470Z,6.80
2023-03-17T04:22:43.114Z,6.80
2023-03-17T04:25:11.700Z,6.80
2023-03-17T04:27:38.597Z,6.80
2023-03-17T04:30:05.904Z,6.90
2023-03-17T04:32:33.043Z,6.90
2023-03-17T04:35:00.124Z,6.90
2023-03-17T04:37:27.029Z,6.90
2023-03-17T04:39:55.478Z,6.80
2023-03-17T04:42:22.341Z,6.80
2023-03-17T04:44:49.295Z,6.70
2023-03-17T04:47:16.860Z,6.60
2023-03-17T04:49:43.786Z,6.60
2023-03-17T04:52:11.029Z,6.50
2023-03-17T04:54:38.346Z,6.50
2023-03-17T04:57:05.431Z,6.50
2023-03-17T04:59:32.344Z,6.50
2023-03-17T05:01:59.252Z,6.50
2023-03-17T05:04:31.767Z,6.50
2023-03-17T05:06:59.872Z,6.60
2023-03-17T05:09:28.943Z,6.60
2023-03-17T05:11:55.865Z,6.60
2023-03-17T05:14:22.882Z,6.60
2023-03-17T05:16:50.827Z,6.50
2023-03-17T05:19:18.608Z,6.50
2023-03-17T05:21:45.565Z,6.50
2023-03-17T05:24:12.743Z,6.40
2023-03-17T05:26:40.158Z,6.40
2023-03-17T05:29:07.244Z,6.30
2023-03-17T05:31:34.200Z,6.30
2023-03-17T05:34:01.206Z,6.30
2023-03-17T05:36:28.259Z,6.30
2023-03-17T05:38:55.143Z,6.30
2023-03-17T05:41:22.104Z,6.30
2023-03-17T05:43:49.129Z,6.30
2023-03-17T05:46:17.573Z,6.30
2023-03-17T05:48:47.314Z,6.30
2023-03-17T05:51:14.254Z,6.30
2023-03-17T05:53:41.984Z,6.40
2023-03-17T05:56:09.455Z,6.40
2023-03-17T05:58:36.705Z,6.40
2023-03-17T06:01:03.634Z,6.50
2023-03-17T06:03:30.699Z,6.50
2023-03-17T06:05:57.663Z,6.60
2023-03-17T06:08:24.630Z,6.70
2023-03-17T06:10:51.654Z,6.70
2023-03-17T06:13:18.572Z,6.70
2023-03-17T06:15:46.868Z,6.70
2023-03-17T06:18:13.789Z,6.80
2023-03-17T06:20:41.817Z,6.80
2023-03-17T06:23:08.657Z,6.80
2023-03-17T06:25:35.918Z,6.80
2023-03-17T06:28:04.076Z,6.80
2023-03-17T06:30:33.102Z,6.80
2023-03-17T06:33:00.478Z,6.90
2023-03-17T06:35:27.740Z,7.00
2023-03-17T06:37:55.015Z,7.00
2023-03-17T06:40:21.943Z,7.00
2023-03-17T06:42:48.878Z,7.10
2023-03-17T06:45:16.700Z,7.20
2023-03-17T06:47:43.676Z,7.20
2023-03-17T06:50:12.384Z,7.20
2023-03-17T06:52:39.734Z,7.30
2023-03-17T06:55:07.409Z,7.30
2023-03-17T06:57:34.740Z,7.30
2023-03-17T07:00:01.699Z,7.40
2023-03-17T07:02:28.911Z,7.50
2023-03-17T07:04:58.604Z,7.50
2023-03-17T07:07:25.599Z,7.60
2023-03-17T07:09:52.943Z,7.70
2023-03-17T07:12:20.288Z,7.80
2023-03-17T07:14:47.349Z,7.80
2023-03-17T07:17:14.873Z,7.80
2023-03-17T07:19:42.459Z,7.80
2023-03-17T07:22:12.810Z,7.80
2023-03-17T07:24:41.476Z,7.80
2023-03-17T07:27:08.822Z,7.90
2023-03-17T07:29:36.109Z,7.90
2023-03-17T07:32:05.485Z,8.00
2023-03-17T07:34:32.636Z,8.00
2023-03-17T07:36:59.649Z,8.10
2023-03-17T07:39:26.657Z,8.10
2023-03-17T07:41:55.412Z,8.10
2023-03-17T07:44:22.894Z,8.20
2023-03-17T07:46:50.265Z,8.30
2023-03-17T07:49:22.767Z,8.30
2023-03-17T07:51:54.591Z,8.40
2023-03-17T07:54:21.753Z,8.50
2023-03-17T07:56:48.974Z,8.50
2023-03-17T07:59:16.003Z,8.50
2023-03-17T08:01:43.006Z,8.60
2023-03-17T08:04:12.738Z,8.60
2023-03-17T08:06:42.974Z,8.70
2023-03-17T08:09:11.643Z,8.70
2023-03-17T08:11:38.646Z,8.70
2023-03-17T08:14:06.206Z,8.70
2023-03-17T08:16:33.708Z,8.70
2023-03-17T08:19:01.026Z,8.70
2023-03-17T08:21:28.188Z,8.80
2023-03-17T08:23:55.074Z,8.80
2023-03-17T08:26:22.115Z,8.90
2023-03-17T08:28:50.412Z,9.00
2023-03-17T08:31:18.770Z,9.20
2023-03-17T08:33:49.949Z,9.30
2023-03-17T08:36:17.700Z,9.40
2023-03-17T08:38:46.330Z,9.50
2023-03-17T08:41:14.681Z,9.60
2023-03-17T08:43:42.858Z,9.70
2023-03-17T08:46:09.917Z,9.80
2023-03-17T08:48:37.511Z,9.90
2023-03-17T08:51:05.569Z,9.90
2023-03-17T08:53:35.174Z,10.00
2023-03-17T08:56:02.671Z,10.20
2023-03-17T08:58:29.730Z,10.40
2023-03-17T09:01:00.703Z,10.60
2023-03-17T09:03:28.188Z,10.80
2023-03-17T09:05:55.168Z,11.00
2023-03-17T09:08:22.072Z,11.20
2023-03-17T09:10:49.369Z,11.40
2023-03-17T09:13:16.548Z,11.50
2023-03-17T09:15:43.615Z,11.60
2023-03-17T09:18:10.716Z,11.60
2023-03-17T09:20:37.604Z,11.70
2023-03-17T09:23:08.548Z,11.90
2023-03-17T09:25:36.401Z,12.10
2023-03-17T09:28:03.884Z,12.30
2023-03-17T09:30:31.210Z,12.60
2023-03-17T09:33:00.807Z,12.80
2023-03-17T09:35:28.474Z,13.00
2023-03-17T09:37:56.211Z,13.20
2023-03-17T09:40:28.734Z,13.30
2023-03-17T09:43:08.450Z,13.50
2023-03-17T09:45:37.461Z,13.60
2023-03-17T09:48:07.162Z,13.80
2023-03-17T09:50:52.924Z,13.80
2023-03-17T09:53:21.752Z,13.90
2023-03-17T09:55:52.853Z,14.00
2023-03-17T09:58:27.261Z,14.00
2023-03-17T10:00:54.160Z,14.10
2023-03-17T10:03:21.431Z,14.10
2023-03-17T10:05:48.527Z,14.20
2023-03-17T10:08:32.445Z,14.20
2023-03-17T10:11:15.074Z,14.20
2023-03-17T10:13:44.882Z,14.10
2023-03-17T10:16:18.713Z,14.20
2023-03-17T10:18:57.096Z,14.20
2023-03-17T10:21:33.054Z,14.30
2023-03-17T10:24:00.818Z,14.30
2023-03-17T10:26:33.256Z,14.40
2023-03-17T10:29:04.195Z,14.50
2023-03-17T10:31:35.972Z,14.40
2023-03-17T10:34:20.444Z,14.40
2023-03-17T10:36:49.437Z,14.40
2023-03-17T10:39:20.510Z,14.50
2023-03-17T10:41:57.921Z,14.50
2023-03-17T10:44:39.883Z,14.60
2023-03-17T10:47:19.342Z,14.80
2023-03-17T10:49:47.082Z,15.00
2023-03-17T10:52:21.268Z,15.10
2023-03-17T10:54:49.307Z,15.20
2023-03-17T10:57:16.181Z,15.20
2023-03-17T10:59:44.693Z,15.20
2023-03-17T11:02:18.370Z,15.30
2023-03-17T11:04:45.301Z,15.30
2023-03-17T11:07:19.217Z,15.30
2023-03-17T11:09:52.690Z,15.40
2023-03-17T11:12:25.790Z,15.50
2023-03-17T11:15:03.965Z,15.60
2023-03-17T11:17:33.922Z,15.70
2023-03-17T11:20:06.738Z,15.80
2023-03-17T11:22:46.643Z,15.90
2023-03-17T11:25:16.419Z,16.00
2023-03-17T11:28:16.403Z,16.10
2023-03-17T11:30:48.011Z,16.30
2023-03-17T11:33:17.838Z,16.50
2023-03-17T11:35:53.362Z,16.60
2023-03-17T11:38:20.302Z,16.70
2023-03-17T11:40:58.985Z,16.70
2023-03-17T11:43:32.013Z,16.70
2023-03-17T11:46:02.560Z,16.70
2023-03-17T11:48:35.701Z,16.80
2023-03-17T11:51:15.510Z,16.90
2023-03-17T11:53:48.673Z,16.90
2023-03-17T11:56:25.091Z,16.80
2023-03-17T11:59:04.100Z,16.70
2023-03-17T12:01:44.550Z,16.70
2023-03-17T12:04:18.610Z,16.70
2023-03-17T12:06:48.626Z,16.70
2023-03-17T12:09:27.643Z,16.80
2023-03-17T12:11:56.181Z,17.00
2023-03-17T12:14:26.727Z,17.00
2023-03-17T12:17:00.866Z,17.00
2023-03-17T12:19:37.470Z,17.00
2023-03-17T12:22:08.616Z,17.10
2023-03-17T12:24:38.952Z,17.20
2023-03-17T12:27:24.386Z,17.10
2023-03-17T12:30:00.606Z,17.10
2023-03-17T12:32:42.471Z,17.10
2023-03-17T12:35:27.974Z,17.10
2023-03-17T12:38:21.298Z,17.20
2023-03-17T12:40:48.188Z,17.40
2023-03-17T12:43:17.605Z,17.50
2023-03-17T12:45:44.834Z,17.60
2023-03-17T12:48:11.813Z,17.60
2023-03-17T12:50:57.313Z,17.50
2023-03-17T12:53:26.963Z,17.30
2023-03-17T12:55:55.830Z,17.20
2023-03-17T12:58:35.808Z,17.00
2023-03-17T13:01:09.039Z,16.80
2023-03-17T13:03:38.659Z,16.60
2023-03-17T13:06:10.507Z,16.50
2023-03-17T13:08:39.969Z,16.50
2023-03-17T13:11:25.298Z,16.50
2023-03-17T13:13:52.518Z,16.50
2023-03-17T13:16:32.979Z,16.50
2023-03-17T13:19:20.268Z,16.50
2023-03-17T13:21:50.188Z,16.50
2023-03-17T13:24:17.127Z,16.50
2023-03-17T13:26:55.060Z,16.60
2023-03-17T13:29:34.922Z,16.60
2023-03-17T13:32:20.168Z,16.60
2023-03-17T13:34:55.931Z,16.50
2023-03-17T13:37:22.892Z,16.50
2023-03-17T13:39:56.197Z,16.50
2023-03-17T13:42:30.173Z,16.40
2023-03-17T13:44:57.229Z,16.40
2023-03-17T13:47:27.420Z,16.30
2023-03-17T13:49:59.859Z,16.30
2023-03-17T13:52:32.146Z,16.30
2023-03-17T13:55:03.153Z,16.30
2023-03-17T13:57:34.903Z,16.20
2023-03-17T14:00:21.200Z,16.20
2023-03-17T14:02:49.207Z,16.20
2023-03-17T14:05:27.533Z,16.20
2023-03-17T14:08:00.098Z,16.20
2023-03-17T14:10:28.345Z,16.10
2023-03-17T14:12:59.280Z,16.10
2023-03-17T14:15:33.241Z,16.10
2023-03-17T14:18:14.400Z,16.00
2023-03-17T14:20:52.228Z,16.00
2023-03-17T14:23:19.031Z,16.00
2023-03-17T14:25:46.152Z,16.00
2023-03-17T14:28:16.156Z,16.00
2023-03-17T14:30:51.398Z,15.90
2023-03-17T14:33:26.293Z,15.90
2023-03-17T14:35:54.359Z,15.90
2023-03-17T14:38:23.023Z,15.90
2023-03-17T14:40:50.935Z,15.90
2023-03-17T14:43:17.989Z,15.90
2023-03-17T14:45:52.440Z,15.90
2023-03-17T14:48:23.298Z,15.80
2023-03-17T14:50:52.362Z,15.80
2023-03-17T14:53:19.913Z,15.70
2023-03-17T14:55:46.958Z,15.60
2023-03-17T14:58:26.141Z,15.60
2023-03-17T15:01:02.359Z,15.50
2023-03-17T15:03:30.605Z,15.50
2023-03-17T15:06:24.069Z,15.40
2023-03-17T15:08:51.350Z,15.40
2023-03-17T15:11:21.533Z,15.30
2023-03-17T15:13:49.870Z,15.30
2023-03-17T15:16:16.888Z,15.30
2023-03-17T15:18:44.224Z,15.30
2023-03-17T15:21:27.411Z,15.30
2023-03-17T15:23:54.526Z,15.30
2023-03-17T15:26:30.491Z,15.30
2023-03-17T15:28:58.412Z,15.30
2023-03-17T15:31:29.609Z,15.20
2023-03-17T15:33:56.992Z,15.20
2023-03-17T15:36:32.483Z,15.10
2023-03-17T15:39:00.748Z,15.10
2023-03-17T15:41:27.836Z,15.10
2023-03-17T15:43:54.688Z,15.00
2023-03-17T15:46:23.943Z,15.00
2023-03-17T15:48:50.954Z,14.90
2023-03-17T15:51:18.359Z,14.80
2023-03-17T15:53:45.378Z,14.80
2023-03-17T15:56:17.004Z,14.70
2023-03-17T15:58:43.905Z,14.60
2023-03-17T16:01:11.463Z,14.60
2023-03-17T16:03:39.058Z,14.50
2023-03-17T16:06:11.159Z,14.50
2023-03-17T16:08:38.625Z,14.40
2023-03-17T16:11:07.927Z,14.40
2023-03-17T16:13:34.789Z,14.40
2023-03-17T16:16:05.531Z,14.30
2023-03-17T16:18:34.130Z,14.30
2023-03-17T16:21:01.676Z,14.30
2023-03-17T16:23:29.931Z,14.20
2023-03-17T16:26:11.657Z,14.20
2023-03-17T16:28:41.476Z,14.20
2023-03-17T16:31:22.643Z,14.10
2023-03-17T16:33:53.044Z,14.10
2023-03-17T16:36:21.188Z,14.10
2023-03-17T16:38:48.224Z,14.00
2023-03-17T16:41:19.551Z,14.00
2023-03-17T16:43:51.162Z,14.00
2023-03-17T16:46:19.955Z,13.90
2023-03-17T16:48:48.623Z,13.90
2023-03-17T16:51:16.050Z,13.90
2023-03-17T16:53:43.298Z,13.80
2023-03-17T16:56:13.835Z,13.80
2023-03-17T16:58:41.841Z,13.80
2023-03-17T17:01:14.491Z,13.70
2023-03-17T17:03:41.642Z,13.70
2023-03-17T17:06:10.171Z,13.70
2023-03-17T17:08:37.112Z,13.60
2023-03-17T17:11:04.225Z,13.60
2023-03-17T17:13:31.424Z,13.50
2023-03-17T17:15:58.647Z,13.50
2023-03-17T17:18:25.704Z,13.50
2023-03-17T17:20:53.664Z,13.50
2023-03-17T17:23:21.754Z,13.40
2023-03-17T17:25:49.074Z,13.40
2023-03-17T17:28:17.732Z,13.40
2023-03-17T17:30:48.091Z,13.30
2023-03-17T17:33:19.699Z,13.30
2023-03-17T17:35:47.457Z,13.30
2023-03-17T17:38:26.498Z,13.30
2023-03-17T17:40:54.003Z,13.30
2023-03-17T17:43:21.043Z,13.20
2023-03-17T17:45:48.852Z,13.20
2023-03-17T17:48:16.589Z,13.20
2023-03-17T17:50:43.642Z,13.10
2023-03-17T17:53:12.492Z,13.10
2023-03-17T17:55:43.275Z,13.10
2023-03-17T17:58:13.891Z,13.00
2023-03-17T18:00:40.792Z,13.00
2023-03-17T18:03:07.789Z,13.00
2023-03-17T18:05:34.690Z,13.00
2023-03-17T18:08:02.798Z,13.00
2023-03-17T18:10:30.428Z,13.00
2023-03-17T18:12:58.672Z,13.00
2023-03-17T18:15:27.411Z,12.90
2023-03-17T18:17:54.403Z,12.90
2023-03-17T18:20:22.411Z,12.90
2023-03-17T18:22:49.914Z,12.90
2023-03-17T18:25:17.551Z,12.90
2023-03-17T18:27:44.502Z,12.90
2023-03-17T18:30:13.595Z,12.80
2023-03-17T18:32:42.984Z,12.80
2023-03-17T18:35:12.738Z,12.80
2023-03-17T18:37:39.916Z,12.80
2023-03-17T18:40:14.593Z,12.80
2023-03-17T18:42:43.440Z,12.80
2023-03-17T18:45:11.748Z,12.70
2023-03-17T18:47:39.202Z,12.70
2023-03-17T18:50:07.314Z,12.70
2023-03-17T18:52:35.012Z,12.70
2023-03-17T18:55:02.131Z,12.60
2023-03-17T18:57:28.987Z,12.60
2023-03-17T18:59:56.217Z,12.60
2023-03-17T19:02:23.341Z,12.60
2023-03-17T19:04:50.425Z,12.60
2023-03-17T19:07:18.241Z,12.60
2023-03-17T19:09:45.394Z,12.50
2023-03-17T19:12:12.450Z,12.50
2023-03-17T19:14:40.374Z,12.50
2023-03-17T19:17:09.072Z,12.50
2023-03-17T19:19:36.920Z,12.50
2023-03-17T19:22:04.336Z,12.50
2023-03-17T19:24:32.354Z,12.40
2023-03-17T19:26:59.354Z,12.40
2023-03-17T19:29:27.942Z,12.40
2023-03-17T19:31:55.153Z,12.40
2023-03-17T19:34:23.213Z,12.40
2023-03-17T19:36:51.465Z,12.40
2023-03-17T19:39:18.814Z,12.30
2023-03-17T19:41:48.602Z,12.30
2023-03-17T19:44:15.635Z,12.30
2023-03-17T19:46:42.552Z,12.20
2023-03-17T19:49:10.026Z,12.20
2023-03-17T19:51:37.015Z,12.20
2023-03-17T19:54:05.487Z,12.10
2023-03-17T19:56:32.469Z,12.10
2023-03-17T19:58:59.529Z,12.10
2023-03-17T20:01:27.956Z,12.00
2023-03-17T20:03:54.997Z,12.00
2023-03-17T20:06:22.369Z,12.00
2023-03-17T20:08:49.274Z,12.00
2023-03-17T20:11:16.333Z,12.00
2023-03-17T20:13:43.368Z,11.90
2023-03-17T20:16:10.692Z,11.90
2023-03-17T20:18:37.638Z,11.90
2023-03-17T20:21:08.360Z,11.90
2023-03-17T20:23:36.892Z,11.90
2023-03-17T20:26:04.262Z,11.80
2023-03-17T20:28:31.642Z,11.80
2023-03-17T20:31:00.206Z,11.70
2023-03-17T20:33:27.921Z,11.70
2023-03-17T20:35:54.996Z,11.70
2023-03-17T20:38:22.672Z,11.70
2023-03-17T20:40:49.693Z,11.70
2023-03-17T20:43:17.259Z,11.70
2023-03-17T20:45:44.335Z,11.70
2023-03-17T20:48:11.407Z,11.70
2023-03-17T20:50:38.752Z,11.70
2023-03-17T20:53:05.726Z,11.70
2023-03-17T20:55:32.674Z,11.70
2023-03-17T20:58:00.007Z,11.60
2023-03-17T21:00:27.138Z,11.60
2023-03-17T21:02:54.015Z,11.60
2023-03-17T21:05:23.238Z,11.50
2023-03-17T21:07:50.942Z,11.50
2023-03-17T21:10:18.507Z,11.50
2023-03-17T21:12:45.466Z,11.50
2023-03-17T21:15:13.134Z,11.50
2023-03-17T21:17:40.075Z,11.50
2023-03-17T21:20:07.366Z,11.50
2023-03-17T21:22:37.262Z,11.40
2023-03-17T21:25:05.474Z,11.40
2023-03-17T21:27:32.436Z,11.40
2023-03-17T21:29:59.601Z,11.40
2023-03-17T21:32:26.565Z,11.40
2023-03-17T21:34:54.578Z,11.30
2023-03-17T21:37:21.724Z,11.30
2023-03-17T21:39:48.657Z,11.20
2023-03-17T21:42:15.587Z,11.20
2023-03-17T21:44:43.475Z,11.20
2023-03-17T21:47:10.482Z,11.20
2023-03-17T21:49:37.456Z,11.20
2023-03-17T21:52:04.758Z,11.10
2023-03-17T21:54:31.661Z,11.10
2023-03-17T21:57:00.728Z,11.10
2023-03-17T21:59:30.978Z,11.00
2023-03-17T22:01:57.948Z,11.00
2023-03-17T22:04:26.100Z,11.00
2023-03-17T22:06:54.045Z,11.00
2023-03-17T22:09:21.974Z,11.00
2023-03-17T22:11:49.866Z,11.00
2023-03-17T22:14:20.239Z,11.00
2023-03-17T22:16:47.950Z,11.00
2023-03-17T22:19:15.233Z,11.00
2023-03-17T22:21:42.904Z,11.00
2023-03-17T22:24:10.549Z,11.00
2023-03-17T22:26:38.552Z,11.00
2023-03-17T22:29:05.613Z,11.00
2023-03-17T22:31:32.678Z,11.00
2023-03-17T22:33:59.888Z,11.00
2023-03-17T22:36:28.158Z,11.00
2023-03-17T22:38:56.879Z,11.00
2023-03-17T22:41:24.748Z,11.00
2023-03-17T22:43:51.862Z,11.00
2023-03-17T22:46:19.444Z,11.00
2023-03-17T22:48:47.008Z,11.00
2023-03-17T22:51:16.065Z,10.90
2023-03-17T22:53:43.140Z,10.90
2023-03-17T22:56:11.177Z,10.90
2023-03-17T22:58:38.637Z,10.90
2023-03-17T23:01:06.927Z,10.90
2023-03-17T23:03:34.396Z,10.80
2023-03-17T23:06:02.552Z,10.80
2023-03-17T23:08:31.644Z,10.70
2023-03-17T23:11:00.680Z,10.60
2023-03-17T23:13:27.914Z,10.60
2023-03-17T23:15:54.829Z,10.60
2023-03-17T23:18:21.822Z,10.60
2023-03-17T23:20:49.249Z,10.60
2023-03-17T23:23:16.246Z,10.50
2023-03-17T23:25:44.239Z,10.50
2023-03-17T23:28:11.276Z,10.50
2023-03-17T23:30:38.680Z,10.50
2023-03-17T23:33:06.355Z,10.40
2023-03-17T23:35:33.717Z,10.40
2023-03-17T23:38:01.552Z,10.40
2023-03-17T23:40:29.148Z,10.40
2023-03-17T23:42:56.580Z,10.30
2023-03-17T23:45:23.634Z,10.30
2023-03-17T23:47:51.634Z,10.20
2023-03-17T23:50:19.181Z,10.20
2023-03-17T23:52:47.309Z,10.20
2023-03-17T23:55:14.617Z,10.10
2023-03-17T23:57:41.705Z,10.10
